createdAt,value
2023-03-29T00:00:08.973Z,29.52
2023-03-29T00:00:23.041Z,27.77
2023-03-29T00:01:00.209Z,26.90
2023-03-29T00:01:35.652Z,25.50
2023-03-29T00:01:48.091Z,26.30
2023-03-29T00:02:02.888Z,24.63
2023-03-29T00:02:16.907Z,24.45
2023-03-29T00:02:33.569Z,25.60
2023-03-29T00:02:48.600Z,24.25
2023-03-29T00:03:03.445Z,22.90
2023-03-29T00:03:16.656Z,24.33
2023-03-29T00:03:30.818Z,25.42
2023-03-29T00:03:45.904Z,25.05
2023-03-29T00:04:02.426Z,24.58
2023-03-29T00:04:19.781Z,23.63
2023-03-29T00:04:34.180Z,23.90
2023-03-29T00:04:48.103Z,24.90
2023-03-29T00:05:02.193Z,25.67
2023-03-29T00:05:16.300Z,23.25
2023-03-29T00:05:29.206Z,22.95
2023-03-29T00:05:41.851Z,23.58
2023-03-29T00:06:03.104Z,23.75
2023-03-29T00:06:22.459Z,23.90
2023-03-29T00:06:35.385Z,22.65
2023-03-29T00:06:48.264Z,22.42
2023-03-29T00:07:04.333Z,22.98
2023-03-29T00:07:17.157Z,23.75
2023-03-29T00:07:33.589Z,23.55
2023-03-29T00:07:46.521Z,22.15
2023-03-29T00:08:01.821Z,20.17
2023-03-29T00:08:14.777Z,22.58
2023-03-29T00:08:27.683Z,22.75
2023-03-29T00:08:40.296Z,21.67
2023-03-29T00:08:54.146Z,22.88
2023-03-29T00:09:09.722Z,23.80
2023-03-29T00:09:22.327Z,23.05
2023-03-29T00:09:34.951Z,21.60
2023-03-29T00:09:47.889Z,21.13
2023-03-29T00:10:01.388Z,20.95
2023-03-29T00:10:14.097Z,21.67
2023-03-29T00:10:27.354Z,22.70
2023-03-29T00:10:41.058Z,21.38
2023-03-29T00:10:56.794Z,21.45
2023-03-29T00:11:09.417Z,19.90
2023-03-29T00:11:22.544Z,19.60
2023-03-29T00:11:35.323Z,21.23
2023-03-29T00:11:47.925Z,23.40
2023-03-29T00:12:01.206Z,21.63
2023-03-29T00:12:14.923Z,20.67
2023-03-29T00:12:27.650Z,19.65
2023-03-29T00:12:41.000Z,20.40
2023-03-29T00:12:54.050Z,19.75
2023-03-29T00:13:06.684Z,19.23
2023-03-29T00:13:19.295Z,20.05
2023-03-29T00:13:31.932Z,20.75
2023-03-29T00:13:45.561Z,21.67
2023-03-29T00:13:58.189Z,20.23
2023-03-29T00:14:11.158Z,17.77
2023-03-29T00:14:23.757Z,17.55
2023-03-29T00:14:36.414Z,17.52
2023-03-29T00:14:49.023Z,17.25
2023-03-29T00:15:02.043Z,18.65
2023-03-29T00:15:15.921Z,20.27
2023-03-29T00:15:28.668Z,20.33
2023-03-29T00:15:42.388Z,19.20
2023-03-29T00:15:56.275Z,19.90
2023-03-29T00:16:09.589Z,18.92
2023-03-29T00:16:22.375Z,18.70
2023-03-29T00:16:35.334Z,19.35
2023-03-29T00:16:49.065Z,19.67
2023-03-29T00:17:03.454Z,18.83
2023-03-29T00:17:16.478Z,19.02
2023-03-29T00:17:29.240Z,20.70
2023-03-29T00:17:41.922Z,20.02
2023-03-29T00:17:54.662Z,18.38
2023-03-29T00:18:08.304Z,19.13
2023-03-29T00:18:21.242Z,20.67
2023-03-29T00:18:33.873Z,20.92
2023-03-29T00:18:46.486Z,23.02
2023-03-29T00:18:59.226Z,22.83
2023-03-29T00:19:11.837Z,22.25
2023-03-29T00:19:24.461Z,23.02
2023-03-29T00:19:37.034Z,23.75
2023-03-29T00:19:50.651Z,24.73
2023-03-29T00:20:06.777Z,26.45
2023-03-29T00:20:19.894Z,29.80
2023-03-29T00:20:32.865Z,33.42
2023-03-29T00:20:45.569Z,33.58
2023-03-29T00:20:59.564Z,34.22
2023-03-29T00:21:12.639Z,35.25
2023-03-29T00:21:26.682Z,35.63
2023-03-29T00:21:39.339Z,37.33
2023-03-29T00:21:52.001Z,39.53
2023-03-29T00:22:06.029Z,41.50
2023-03-29T00:22:18.679Z,41.45
2023-03-29T00:22:31.522Z,43.05
2023-03-29T00:22:46.794Z,45.38
2023-03-29T00:22:59.408Z,46.10
2023-03-29T00:23:12.154Z,45.83
2023-03-29T00:23:25.354Z,45.78
2023-03-29T00:23:37.987Z,45.85
2023-03-29T00:23:50.745Z,44.20
2023-03-29T00:24:05.000Z,44.17
2023-03-29T00:24:17.595Z,42.28
2023-03-29T00:24:30.326Z,41.38
2023-03-29T00:24:42.898Z,43.00
2023-03-29T00:24:55.785Z,45.65
2023-03-29T00:25:08.890Z,45.25
2023-03-29T00:25:21.536Z,40.85
2023-03-29T00:25:35.165Z,39.97
2023-03-29T00:25:47.767Z,38.22
2023-03-29T00:26:00.413Z,38.75
2023-03-29T00:26:13.041Z,40.75
2023-03-29T00:26:25.870Z,39.13
2023-03-29T00:26:38.477Z,35.65
2023-03-29T00:26:51.154Z,33.90
2023-03-29T00:27:03.931Z,33.90
2023-03-29T00:27:17.615Z,33.55
2023-03-29T00:27:30.386Z,33.30
2023-03-29T00:27:42.997Z,32.33
2023-03-29T00:27:56.018Z,35.42
2023-03-29T00:28:08.647Z,33.78
2023-03-29T00:28:21.290Z,31.73
2023-03-29T00:28:33.942Z,30.73
2023-03-29T00:28:47.532Z,31.08
2023-03-29T00:29:00.219Z,30.48
2023-03-29T00:29:12.918Z,29.95
2023-03-29T00:29:25.757Z,29.38
2023-03-29T00:29:38.388Z,29.63
2023-03-29T00:29:50.992Z,30.83
2023-03-29T00:30:05.614Z,31.45
2023-03-29T00:30:18.320Z,30.27
2023-03-29T00:30:31.267Z,30.58
2023-03-29T00:30:44.856Z,30.98
2023-03-29T00:31:06.891Z,33.45
2023-03-29T00:31:20.059Z,33.13
2023-03-29T00:31:32.835Z,33.30
2023-03-29T00:31:52.430Z,34.47
2023-03-29T00:32:07.740Z,33.15
2023-03-29T00:32:20.323Z,31.00
2023-03-29T00:32:34.085Z,29.15
2023-03-29T00:32:47.178Z,27.33
2023-03-29T00:32:59.902Z,27.42
2023-03-29T00:33:12.668Z,30.05
2023-03-29T00:33:25.309Z,29.88
2023-03-29T00:33:39.606Z,31.33
2023-03-29T00:33:52.265Z,31.67
2023-03-29T00:34:04.889Z,29.60
2023-03-29T00:34:17.520Z,29.73
2023-03-29T00:34:31.008Z,30.33
2023-03-29T00:34:46.000Z,32.50
2023-03-29T00:35:00.815Z,32.28
2023-03-29T00:35:14.516Z,30.73
2023-03-29T00:35:27.267Z,32.05
2023-03-29T00:35:40.820Z,34.08
2023-03-29T00:35:53.636Z,34.53
2023-03-29T00:36:08.640Z,33.90
2023-03-29T00:36:22.192Z,32.70
2023-03-29T00:36:35.877Z,31.30
2023-03-29T00:36:50.944Z,31.70
2023-03-29T00:37:04.218Z,30.80
2023-03-29T00:37:16.900Z,27.05
2023-03-29T00:37:30.036Z,27.88
2023-03-29T00:37:42.693Z,31.17
2023-03-29T00:37:55.323Z,32.50
2023-03-29T00:38:09.403Z,29.60
2023-03-29T00:38:22.195Z,28.95
2023-03-29T00:38:35.161Z,29.33
2023-03-29T00:38:48.030Z,29.27
2023-03-29T00:39:00.660Z,28.70
2023-03-29T00:39:13.346Z,29.05
2023-03-29T00:39:28.011Z,29.33
2023-03-29T00:39:42.221Z,29.92
2023-03-29T00:39:54.847Z,28.55
2023-03-29T00:40:10.432Z,26.92
2023-03-29T00:40:23.143Z,27.05
2023-03-29T00:40:41.997Z,26.45
2023-03-29T00:40:54.646Z,27.85
2023-03-29T00:41:09.257Z,30.42
2023-03-29T00:41:21.880Z,29.38
2023-03-29T00:41:34.739Z,28.58
2023-03-29T00:41:48.521Z,29.75
2023-03-29T00:42:01.544Z,29.48
2023-03-29T00:42:15.456Z,25.50
2023-03-29T00:42:28.104Z,26.33
2023-03-29T00:42:45.763Z,28.75
2023-03-29T00:42:58.482Z,28.38
2023-03-29T00:43:11.872Z,28.38
2023-03-29T00:43:25.050Z,27.63
2023-03-29T00:43:56.089Z,26.35
2023-03-29T00:44:45.437Z,27.55
2023-03-29T00:45:01.467Z,26.70
2023-03-29T00:45:20.011Z,23.38
2023-03-29T00:45:35.866Z,25.77
2023-03-29T00:45:49.453Z,27.70
2023-03-29T00:46:02.178Z,29.30
2023-03-29T00:46:15.424Z,27.27
2023-03-29T00:46:29.959Z,26.27
2023-03-29T00:46:42.694Z,26.27
2023-03-29T00:46:55.443Z,25.92
2023-03-29T00:47:09.400Z,25.27
2023-03-29T00:47:28.007Z,24.90
2023-03-29T00:47:44.667Z,23.73
2023-03-29T00:48:00.367Z,24.80
2023-03-29T00:48:15.998Z,25.10
2023-03-29T00:48:30.213Z,23.85
2023-03-29T00:48:43.095Z,25.35
2023-03-29T00:49:02.627Z,24.05
2023-03-29T00:49:15.402Z,23.00
2023-03-29T00:49:28.040Z,22.40
2023-03-29T00:49:40.643Z,21.60
2023-03-29T00:49:54.680Z,22.30
2023-03-29T00:50:14.389Z,23.42
2023-03-29T00:50:32.175Z,26.10
2023-03-29T00:50:51.380Z,25.88
2023-03-29T00:51:10.036Z,24.10
2023-03-29T00:51:27.522Z,24.45
2023-03-29T00:51:41.513Z,22.75
2023-03-29T00:51:55.236Z,23.95
2023-03-29T00:52:08.471Z,26.55
2023-03-29T00:52:22.746Z,27.25
2023-03-29T00:52:36.199Z,26.83
2023-03-29T00:52:53.594Z,26.30
2023-03-29T00:53:10.019Z,26.05
2023-03-29T00:53:28.654Z,24.88
2023-03-29T00:53:45.781Z,25.40
2023-03-29T00:54:01.742Z,25.48
2023-03-29T00:54:18.773Z,28.10
2023-03-29T00:54:32.937Z,30.48
2023-03-29T00:54:46.544Z,29.40
2023-03-29T00:55:05.274Z,27.52
2023-03-29T00:55:22.887Z,27.42
2023-03-29T00:55:39.040Z,27.48
2023-03-29T00:55:57.161Z,26.75
2023-03-29T00:56:14.174Z,27.70
2023-03-29T00:56:30.006Z,27.63
2023-03-29T00:56:46.998Z,26.38
2023-03-29T00:57:04.075Z,26.63
2023-03-29T00:57:20.689Z,26.00
2023-03-29T00:57:34.164Z,27.38
2023-03-29T00:57:49.361Z,29.17
2023-03-29T00:58:05.025Z,29.95
2023-03-29T00:58:22.980Z,27.02
2023-03-29T00:58:39.402Z,25.80
2023-03-29T00:58:57.331Z,27.00
2023-03-29T00:59:14.630Z,26.50
2023-03-29T00:59:32.917Z,23.85
2023-03-29T00:59:46.947Z,25.17
2023-03-29T01:00:01.664Z,24.85
2023-03-29T01:00:20.900Z,25.98
2023-03-29T01:00:39.219Z,25.65
2023-03-29T01:00:57.921Z,24.52
2023-03-29T01:01:19.414Z,24.55
2023-03-29T01:01:38.199Z,26.98
2023-03-29T01:01:55.304Z,26.45
2023-03-29T01:02:09.953Z,24.02
2023-03-29T01:02:26.168Z,24.30
2023-03-29T01:02:42.046Z,26.15
2023-03-29T01:02:59.752Z,25.92
2023-03-29T01:03:25.062Z,25.52
2023-03-29T01:03:46.576Z,24.33
2023-03-29T01:04:03.856Z,23.77
2023-03-29T01:04:19.851Z,21.80
2023-03-29T01:04:37.643Z,23.70
2023-03-29T01:04:53.692Z,24.83
2023-03-29T01:05:12.003Z,23.00
2023-03-29T01:05:29.592Z,22.45
2023-03-29T01:05:45.669Z,25.00
2023-03-29T01:06:01.886Z,23.90
2023-03-29T01:06:19.310Z,23.23
2023-03-29T01:06:39.323Z,24.38
2023-03-29T01:06:58.489Z,26.52
2023-03-29T01:07:18.076Z,25.10
2023-03-29T01:07:36.620Z,23.05
2023-03-29T01:07:58.068Z,22.00
2023-03-29T01:08:18.423Z,24.25
2023-03-29T01:08:35.037Z,21.95
2023-03-29T01:08:51.562Z,21.85
2023-03-29T01:09:09.295Z,22.30
2023-03-29T01:09:27.042Z,21.32
2023-03-29T01:09:43.384Z,21.90
2023-03-29T01:10:01.464Z,23.50
2023-03-29T01:10:19.111Z,23.92
2023-03-29T01:10:36.231Z,22.52
2023-03-29T01:10:54.718Z,23.13
2023-03-29T01:11:14.147Z,24.10
2023-03-29T01:11:31.822Z,22.02
2023-03-29T01:11:48.768Z,23.88
2023-03-29T01:12:08.959Z,23.88
2023-03-29T01:12:26.637Z,23.98
2023-03-29T01:12:45.578Z,20.75
2023-03-29T01:13:04.990Z,22.58
2023-03-29T01:13:21.889Z,22.48
2023-03-29T01:13:39.445Z,25.70
2023-03-29T01:13:58.926Z,25.35
2023-03-29T01:14:20.001Z,22.77
2023-03-29T01:14:38.657Z,24.58
2023-03-29T01:14:57.041Z,25.33
2023-03-29T01:15:11.813Z,23.02
2023-03-29T01:15:27.751Z,24.15
2023-03-29T01:15:44.201Z,24.17
2023-03-29T01:16:00.075Z,22.75
2023-03-29T01:16:14.649Z,22.80
2023-03-29T01:16:30.366Z,22.05
2023-03-29T01:16:43.315Z,22.58
2023-03-29T01:16:56.149Z,25.55
2023-03-29T01:17:11.037Z,26.17
2023-03-29T01:17:25.608Z,25.67
2023-03-29T01:17:38.817Z,25.67
2023-03-29T01:17:53.856Z,24.15
2023-03-29T01:18:06.642Z,22.60
2023-03-29T01:18:22.035Z,21.52
2023-03-29T01:18:35.210Z,21.63
2023-03-29T01:18:48.334Z,24.67
2023-03-29T01:19:02.621Z,25.65
2023-03-29T01:19:21.460Z,25.45
2023-03-29T01:19:40.725Z,24.42
2023-03-29T01:19:59.867Z,23.16
2023-03-29T01:20:17.452Z,21.63
2023-03-29T01:20:49.162Z,23.30
2023-03-29T01:21:16.258Z,25.08
2023-03-29T01:21:33.529Z,25.15
2023-03-29T01:21:51.650Z,27.02
2023-03-29T01:22:19.965Z,21.65
2023-03-29T01:22:42.683Z,23.85
2023-03-29T01:23:07.524Z,24.70
2023-03-29T01:23:34.878Z,22.83
2023-03-29T01:24:14.054Z,24.45
2023-03-29T01:24:51.154Z,24.46
2023-03-29T01:25:12.582Z,22.42
2023-03-29T01:25:35.904Z,23.90
2023-03-29T01:25:55.693Z,26.20
2023-03-29T01:26:17.074Z,25.20
2023-03-29T01:26:40.946Z,25.48
2023-03-29T01:27:05.341Z,26.05
2023-03-29T01:27:23.546Z,26.08
2023-03-29T01:27:53.380Z,23.33
2023-03-29T01:28:10.048Z,25.83
2023-03-29T01:28:28.464Z,25.52
2023-03-29T01:28:47.126Z,27.08
2023-03-29T01:29:04.652Z,25.42
2023-03-29T01:29:25.420Z,23.52
2023-03-29T01:29:45.568Z,22.17
2023-03-29T01:30:04.204Z,23.40
2023-03-29T01:30:22.217Z,22.73
2023-03-29T01:30:41.904Z,24.75
2023-03-29T01:31:01.995Z,25.67
2023-03-29T01:31:21.966Z,25.17
2023-03-29T01:31:39.755Z,25.68
2023-03-29T01:31:56.418Z,26.17
2023-03-29T01:32:13.824Z,25.08
2023-03-29T01:32:35.389Z,22.05
2023-03-29T01:32:55.673Z,24.23
2023-03-29T01:33:13.853Z,25.15
2023-03-29T01:33:31.705Z,22.95
2023-03-29T01:33:49.614Z,24.83
2023-03-29T01:34:08.706Z,24.20
2023-03-29T01:34:25.899Z,25.15
2023-03-29T01:34:44.074Z,23.92
2023-03-29T01:35:01.434Z,26.75
2023-03-29T01:35:19.450Z,25.55
2023-03-29T01:35:39.209Z,22.42
2023-03-29T01:35:57.804Z,22.67
2023-03-29T01:36:16.510Z,23.25
2023-03-29T01:36:37.226Z,23.65
2023-03-29T01:36:54.865Z,22.38
2023-03-29T01:37:13.576Z,21.85
2023-03-29T01:37:32.440Z,20.90
2023-03-29T01:37:51.066Z,23.10
2023-03-29T01:38:08.749Z,22.48
2023-03-29T01:38:25.912Z,23.13
2023-03-29T01:38:44.234Z,23.30
2023-03-29T01:38:59.101Z,22.15
2023-03-29T01:39:12.004Z,20.98
2023-03-29T01:39:24.917Z,21.92
2023-03-29T01:39:37.550Z,24.58
2023-03-29T01:39:50.776Z,24.63
2023-03-29T01:40:06.017Z,23.35
2023-03-29T01:40:18.788Z,24.88
2023-03-29T01:40:32.931Z,24.25
2023-03-29T01:40:45.545Z,22.40
2023-03-29T01:40:58.415Z,21.08
2023-03-29T01:41:12.273Z,20.40
2023-03-29T01:41:35.779Z,23.55
2023-03-29T01:42:00.695Z,21.15
2023-03-29T01:42:28.945Z,21.10
2023-03-29T01:42:48.364Z,19.88
2023-03-29T01:43:10.942Z,21.73
2023-03-29T01:43:28.283Z,23.00
2023-03-29T01:43:46.703Z,20.98
2023-03-29T01:44:04.717Z,19.73
2023-03-29T01:44:22.606Z,20.35
2023-03-29T01:44:43.590Z,21.98
2023-03-29T01:45:04.345Z,21.67
2023-03-29T01:45:24.941Z,24.30
2023-03-29T01:45:45.587Z,21.83
2023-03-29T01:46:05.840Z,21.13
2023-03-29T01:46:28.740Z,22.83
2023-03-29T01:46:46.937Z,24.40
2023-03-29T01:47:08.830Z,23.65
2023-03-29T01:47:29.806Z,19.20
2023-03-29T01:47:48.064Z,20.27
2023-03-29T01:48:05.484Z,18.20
2023-03-29T01:48:23.988Z,20.35
2023-03-29T01:48:46.563Z,21.77
2023-03-29T01:49:04.623Z,20.90
2023-03-29T01:49:24.688Z,21.23
2023-03-29T01:49:42.245Z,20.88
2023-03-29T01:50:05.574Z,20.80
2023-03-29T01:50:24.885Z,20.92
2023-03-29T01:50:43.372Z,21.63
2023-03-29T01:51:04.618Z,20.65
2023-03-29T01:51:22.765Z,19.70
2023-03-29T01:51:40.165Z,19.17
2023-03-29T01:51:57.408Z,20.50
2023-03-29T01:52:17.056Z,20.70
2023-03-29T01:52:35.788Z,18.30
2023-03-29T01:52:53.093Z,20.67
2023-03-29T01:53:10.337Z,19.92
2023-03-29T01:53:29.896Z,17.98
2023-03-29T01:53:47.120Z,18.20
2023-03-29T01:54:06.574Z,18.10
2023-03-29T01:54:23.303Z,19.73
2023-03-29T01:54:39.166Z,19.02
2023-03-29T01:54:56.392Z,19.27
2023-03-29T01:55:13.129Z,19.70
2023-03-29T01:55:32.448Z,18.60
2023-03-29T01:55:50.072Z,17.48
2023-03-29T01:56:07.702Z,18.38
2023-03-29T01:56:24.919Z,19.10
2023-03-29T01:56:41.217Z,21.75
2023-03-29T01:56:57.125Z,21.70
2023-03-29T01:57:12.722Z,19.48
2023-03-29T01:57:26.455Z,18.30
2023-03-29T01:57:42.488Z,18.75
2023-03-29T01:57:56.653Z,19.58
2023-03-29T01:58:13.330Z,18.10
2023-03-29T01:58:31.429Z,16.42
2023-03-29T01:58:48.470Z,19.13
2023-03-29T01:59:04.252Z,20.67
2023-03-29T01:59:22.251Z,19.00
2023-03-29T01:59:39.420Z,18.73
2023-03-29T01:59:55.233Z,16.85
2023-03-29T02:00:11.397Z,16.58
2023-03-29T02:00:27.951Z,16.90
2023-03-29T02:00:43.826Z,18.70
2023-03-29T02:00:58.171Z,25.42
2023-03-29T02:01:17.704Z,32.15
2023-03-29T02:01:34.569Z,28.10
2023-03-29T02:01:51.770Z,27.85
2023-03-29T02:02:11.328Z,26.63
2023-03-29T02:02:27.323Z,21.45
2023-03-29T02:02:43.300Z,20.05
2023-03-29T02:03:00.754Z,19.70
2023-03-29T02:03:17.470Z,22.10
2023-03-29T02:03:33.956Z,21.30
2023-03-29T02:03:49.979Z,18.48
2023-03-29T02:04:07.319Z,20.35
2023-03-29T02:04:25.679Z,21.65
2023-03-29T02:04:41.764Z,20.73
2023-03-29T02:04:57.498Z,19.67
2023-03-29T02:05:12.584Z,20.48
2023-03-29T02:05:26.841Z,20.02
2023-03-29T02:05:41.029Z,21.02
2023-03-29T02:05:55.322Z,20.42
2023-03-29T02:06:09.943Z,23.63
2023-03-29T02:06:27.412Z,24.88
2023-03-29T02:06:41.838Z,21.63
2023-03-29T02:06:56.628Z,20.05
2023-03-29T02:07:10.781Z,18.58
2023-03-29T02:07:26.693Z,19.23
2023-03-29T02:07:40.710Z,19.73
2023-03-29T02:07:55.675Z,20.15
2023-03-29T02:08:10.894Z,18.88
2023-03-29T02:08:24.956Z,18.45
2023-03-29T02:08:39.181Z,17.10
2023-03-29T02:08:53.357Z,17.30
2023-03-29T02:09:07.232Z,19.40
2023-03-29T02:09:21.224Z,19.02
2023-03-29T02:09:37.769Z,18.42
2023-03-29T02:09:52.717Z,17.73
2023-03-29T02:10:08.013Z,17.15
2023-03-29T02:10:21.860Z,16.30
2023-03-29T02:10:37.092Z,15.55
2023-03-29T02:10:50.334Z,17.02
2023-03-29T02:11:04.705Z,18.45
2023-03-29T02:11:18.331Z,19.70
2023-03-29T02:11:30.987Z,18.95
2023-03-29T02:11:45.266Z,17.80
2023-03-29T02:12:00.538Z,18.45
2023-03-29T02:12:16.704Z,20.50
2023-03-29T02:12:29.971Z,19.00
2023-03-29T02:12:42.691Z,17.42
2023-03-29T02:12:56.068Z,18.13
2023-03-29T02:13:10.133Z,20.58
2023-03-29T02:13:23.980Z,18.90
2023-03-29T02:13:37.106Z,18.50
2023-03-29T02:13:49.810Z,18.35
2023-03-29T02:14:02.546Z,17.35
2023-03-29T02:14:15.537Z,17.70
2023-03-29T02:14:29.466Z,19.63
2023-03-29T02:14:43.259Z,18.90
2023-03-29T02:14:57.851Z,18.42
2023-03-29T02:15:13.034Z,19.20
2023-03-29T02:15:25.856Z,19.02
2023-03-29T02:15:38.748Z,18.20
2023-03-29T02:15:51.421Z,17.92
2023-03-29T02:16:09.607Z,18.00
2023-03-29T02:16:22.464Z,18.30
2023-03-29T02:16:35.963Z,17.67
2023-03-29T02:16:49.701Z,18.70
2023-03-29T02:17:16.930Z,18.55
2023-03-29T02:17:30.624Z,18.00
2023-03-29T02:17:46.394Z,17.08
2023-03-29T02:17:59.517Z,16.67
2023-03-29T02:18:13.922Z,17.20
2023-03-29T02:18:26.597Z,20.02
2023-03-29T02:18:40.372Z,21.40
2023-03-29T02:18:56.402Z,21.15
2023-03-29T02:19:11.649Z,19.08
2023-03-29T02:19:25.369Z,18.90
2023-03-29T02:19:39.286Z,19.38
2023-03-29T02:19:58.112Z,20.20
2023-03-29T02:20:17.373Z,19.27
2023-03-29T02:20:32.561Z,18.33
2023-03-29T02:20:48.778Z,18.70
2023-03-29T02:21:03.420Z,19.83
2023-03-29T02:21:24.143Z,20.08
2023-03-29T02:21:43.543Z,18.23
2023-03-29T02:22:01.962Z,18.80
2023-03-29T02:22:16.610Z,19.30
2023-03-29T02:22:37.147Z,17.63
2023-03-29T02:22:57.642Z,19.30
2023-03-29T02:23:21.273Z,17.50
2023-03-29T02:23:37.448Z,18.25
2023-03-29T02:23:54.359Z,18.75
2023-03-29T02:24:11.327Z,19.15
2023-03-29T02:24:26.502Z,20.45
2023-03-29T02:24:42.433Z,19.83
2023-03-29T02:24:59.404Z,17.85
2023-03-29T02:25:13.011Z,16.83
2023-03-29T02:25:26.080Z,16.25
2023-03-29T02:25:38.915Z,15.63
2023-03-29T02:25:54.781Z,17.50
2023-03-29T02:26:08.957Z,18.67
2023-03-29T02:26:22.608Z,18.00
2023-03-29T02:26:36.220Z,18.05
2023-03-29T02:26:49.355Z,17.48
2023-03-29T02:27:02.584Z,17.00
2023-03-29T02:27:15.206Z,17.33
2023-03-29T02:27:30.104Z,17.73
2023-03-29T02:27:42.795Z,17.65
2023-03-29T02:27:56.382Z,18.23
2023-03-29T02:28:10.544Z,19.08
2023-03-29T02:28:24.702Z,19.10
2023-03-29T02:28:37.941Z,19.38
2023-03-29T02:28:52.865Z,20.42
2023-03-29T02:29:05.660Z,20.00
2023-03-29T02:29:18.293Z,19.95
2023-03-29T02:29:31.254Z,19.42
2023-03-29T02:29:46.893Z,19.75
2023-03-29T02:29:59.661Z,20.10
2023-03-29T02:30:13.613Z,20.50
2023-03-29T02:30:31.752Z,20.73
2023-03-29T02:30:53.514Z,22.30
2023-03-29T02:31:12.258Z,21.15
2023-03-29T02:31:29.404Z,21.98
2023-03-29T02:31:48.829Z,22.25
2023-03-29T02:32:09.794Z,23.73
2023-03-29T02:32:30.540Z,23.40
2023-03-29T02:32:50.263Z,23.80
2023-03-29T02:33:10.805Z,28.23
2023-03-29T02:33:31.347Z,26.67
2023-03-29T02:33:52.239Z,26.98
2023-03-29T02:34:11.316Z,23.20
2023-03-29T02:34:29.683Z,21.88
2023-03-29T02:34:49.382Z,21.17
2023-03-29T02:35:06.686Z,22.60
2023-03-29T02:35:26.849Z,24.08
2023-03-29T02:35:45.766Z,21.92
2023-03-29T02:36:03.720Z,21.52
2023-03-29T02:36:20.939Z,23.85
2023-03-29T02:36:40.736Z,22.75
2023-03-29T02:37:00.137Z,21.48
2023-03-29T02:37:18.871Z,22.55
2023-03-29T02:37:34.509Z,23.20
2023-03-29T02:37:49.689Z,21.00
2023-03-29T02:38:05.977Z,20.35
2023-03-29T02:38:20.767Z,20.92
2023-03-29T02:38:35.234Z,20.73
2023-03-29T02:38:47.897Z,22.05
2023-03-29T02:39:04.681Z,22.88
2023-03-29T02:39:19.320Z,22.45
2023-03-29T02:39:34.720Z,21.75
2023-03-29T02:39:48.593Z,19.52
2023-03-29T02:40:12.910Z,19.15
2023-03-29T02:40:26.164Z,20.02
2023-03-29T02:40:40.870Z,20.55
2023-03-29T02:40:56.020Z,19.17
2023-03-29T02:41:10.850Z,17.83
2023-03-29T02:41:25.546Z,19.13
2023-03-29T02:41:40.107Z,20.10
2023-03-29T02:41:54.187Z,19.30
2023-03-29T02:42:07.821Z,19.48
2023-03-29T02:42:22.529Z,21.25
2023-03-29T02:42:35.850Z,21.15
2023-03-29T02:42:49.216Z,20.60
2023-03-29T02:43:03.305Z,20.25
2023-03-29T02:43:18.626Z,19.42
2023-03-29T02:43:32.890Z,18.48
2023-03-29T02:43:47.689Z,19.60
2023-03-29T02:44:02.245Z,20.35
2023-03-29T02:44:18.797Z,18.33
2023-03-29T02:44:33.569Z,18.30
2023-03-29T02:44:50.675Z,19.50
2023-03-29T02:45:06.116Z,19.25
2023-03-29T02:45:19.788Z,18.73
2023-03-29T02:45:33.675Z,19.00
2023-03-29T02:45:47.293Z,19.00
2023-03-29T02:46:01.781Z,20.52
2023-03-29T02:46:16.586Z,19.65
2023-03-29T02:46:30.214Z,20.35
2023-03-29T02:46:44.013Z,21.23
2023-03-29T02:47:00.574Z,19.55
2023-03-29T02:47:19.082Z,17.73
2023-03-29T02:47:35.861Z,18.63
2023-03-29T02:47:53.628Z,20.05
2023-03-29T02:48:12.130Z,19.98
2023-03-29T02:48:27.214Z,18.73
2023-03-29T02:48:41.096Z,18.15
2023-03-29T02:48:55.715Z,18.42
2023-03-29T02:49:10.065Z,18.67
2023-03-29T02:49:23.556Z,18.60
2023-03-29T02:49:37.178Z,18.83
2023-03-29T02:49:50.170Z,18.85
2023-03-29T02:50:03.107Z,17.70
2023-03-29T02:50:16.621Z,16.55
2023-03-29T02:50:35.420Z,17.25
2023-03-29T02:50:51.209Z,17.25
2023-03-29T02:51:10.445Z,16.05
2023-03-29T02:51:27.599Z,16.50
2023-03-29T02:51:40.204Z,18.30
2023-03-29T02:51:56.093Z,18.00
2023-03-29T02:52:13.225Z,16.23
2023-03-29T02:52:33.447Z,16.75
2023-03-29T02:52:54.035Z,16.92
2023-03-29T02:53:13.326Z,17.65
2023-03-29T02:53:30.788Z,18.35
2023-03-29T02:53:49.857Z,17.00
2023-03-29T02:54:06.770Z,16.33
2023-03-29T02:54:26.003Z,16.10
2023-03-29T02:54:43.264Z,15.18
2023-03-29T02:54:56.159Z,17.13
2023-03-29T02:55:15.082Z,17.00
2023-03-29T02:55:31.383Z,14.85
2023-03-29T02:55:46.947Z,17.02
2023-03-29T02:56:02.294Z,16.08
2023-03-29T02:56:14.978Z,14.52
2023-03-29T02:56:27.734Z,14.88
2023-03-29T02:56:43.802Z,14.80
2023-03-29T02:56:58.393Z,15.60
2023-03-29T02:57:13.449Z,15.23
2023-03-29T02:57:28.739Z,16.00
2023-03-29T02:57:43.513Z,16.45
2023-03-29T02:57:56.130Z,16.38
2023-03-29T02:58:09.332Z,17.73
2023-03-29T02:58:26.660Z,17.23
2023-03-29T02:58:39.356Z,16.67
2023-03-29T02:58:51.971Z,15.88
2023-03-29T02:59:04.551Z,15.95
2023-03-29T02:59:19.550Z,15.90
2023-03-29T02:59:33.414Z,15.88
2023-03-29T02:59:46.620Z,14.57
2023-03-29T03:00:01.129Z,14.85
2023-03-29T03:00:20.279Z,16.85
2023-03-29T03:00:34.225Z,13.43
2023-03-29T03:00:49.060Z,12.80
2023-03-29T03:01:02.982Z,14.07
2023-03-29T03:01:17.899Z,14.73
2023-03-29T03:01:30.624Z,15.00
2023-03-29T03:01:44.999Z,14.10
2023-03-29T03:01:58.417Z,14.40
2023-03-29T03:02:11.848Z,16.38
2023-03-29T03:02:25.921Z,16.00
2023-03-29T03:02:38.617Z,15.30
2023-03-29T03:02:52.165Z,16.90
2023-03-29T03:03:06.195Z,18.65
2023-03-29T03:03:20.895Z,17.45
2023-03-29T03:03:33.901Z,15.57
2023-03-29T03:03:47.987Z,14.02
2023-03-29T03:04:00.724Z,14.30
2023-03-29T03:04:13.516Z,14.52
2023-03-29T03:04:26.652Z,14.38
2023-03-29T03:04:39.398Z,15.20
2023-03-29T03:04:52.218Z,15.18
2023-03-29T03:05:06.888Z,14.75
2023-03-29T03:05:19.604Z,14.48
2023-03-29T03:05:32.239Z,15.13
2023-03-29T03:05:44.781Z,15.75
2023-03-29T03:05:57.870Z,15.45
2023-03-29T03:06:10.666Z,16.13
2023-03-29T03:06:24.259Z,15.48
2023-03-29T03:06:37.356Z,15.05
2023-03-29T03:06:50.130Z,16.77
2023-03-29T03:07:04.788Z,15.88
2023-03-29T03:07:18.844Z,13.70
2023-03-29T03:07:31.895Z,14.98
2023-03-29T03:07:44.473Z,16.92
2023-03-29T03:07:58.480Z,18.42
2023-03-29T03:08:12.167Z,16.67
2023-03-29T03:08:24.806Z,14.57
2023-03-29T03:08:37.506Z,15.55
2023-03-29T03:08:50.079Z,16.88
2023-03-29T03:09:03.910Z,16.25
2023-03-29T03:09:16.930Z,16.27
2023-03-29T03:09:30.661Z,15.23
2023-03-29T03:09:43.423Z,14.95
2023-03-29T03:09:56.077Z,14.77
2023-03-29T03:10:10.226Z,14.70
2023-03-29T03:10:23.363Z,14.52
2023-03-29T03:10:36.335Z,15.65
2023-03-29T03:10:49.011Z,15.40
2023-03-29T03:11:02.965Z,13.98
2023-03-29T03:11:15.790Z,15.85
2023-03-29T03:11:28.435Z,15.70
2023-03-29T03:11:41.183Z,14.18
2023-03-29T03:11:53.880Z,16.55
2023-03-29T03:12:07.615Z,17.02
2023-03-29T03:12:20.315Z,16.05
2023-03-29T03:12:32.997Z,16.23
2023-03-29T03:12:46.943Z,17.42
2023-03-29T03:12:59.601Z,18.80
2023-03-29T03:13:12.689Z,17.60
2023-03-29T03:13:27.085Z,15.13
2023-03-29T03:13:39.681Z,14.05
2023-03-29T03:13:52.368Z,14.88
2023-03-29T03:14:05.831Z,15.15
2023-03-29T03:14:22.859Z,16.20
2023-03-29T03:14:35.680Z,16.05
2023-03-29T03:14:48.450Z,15.25
2023-03-29T03:15:01.112Z,13.57
2023-03-29T03:15:14.379Z,14.10
2023-03-29T03:15:27.341Z,15.20
2023-03-29T03:15:42.812Z,16.17
2023-03-29T03:15:56.214Z,16.30
2023-03-29T03:16:09.602Z,16.52
2023-03-29T03:16:22.861Z,16.15
2023-03-29T03:16:36.343Z,16.33
2023-03-29T03:16:49.124Z,16.17
2023-03-29T03:17:04.405Z,15.60
2023-03-29T03:17:19.414Z,14.10
2023-03-29T03:17:33.355Z,14.98
2023-03-29T03:17:46.622Z,15.68
2023-03-29T03:17:59.325Z,14.90
2023-03-29T03:18:12.730Z,14.65
2023-03-29T03:18:25.498Z,15.30
2023-03-29T03:18:39.215Z,15.43
2023-03-29T03:18:53.787Z,14.65
2023-03-29T03:19:07.003Z,13.90
2023-03-29T03:19:20.461Z,16.02
2023-03-29T03:19:33.103Z,16.45
2023-03-29T03:19:45.675Z,14.77
2023-03-29T03:19:59.254Z,15.13
2023-03-29T03:20:12.974Z,17.15
2023-03-29T03:20:26.617Z,16.55
2023-03-29T03:20:40.198Z,15.70
2023-03-29T03:20:56.847Z,15.57
2023-03-29T03:21:10.426Z,16.38
2023-03-29T03:21:23.441Z,17.52
2023-03-29T03:21:37.843Z,18.65
2023-03-29T03:21:51.092Z,17.50
2023-03-29T03:22:05.978Z,18.52
2023-03-29T03:22:18.659Z,18.80